Time;durP1;ratioP1;P1;durP2;ratioP2;P2;SDS_P1;SDS_P2;PMS_P1;PMS_P2;Temp;Humidity;BMP_temperature;BMP_pressure;BME280_temperature;BME280_humidity;BME280_pressure;Samples;Min_cycle;Max_cycle;Signal;HPM_P1;HPM_P2
2022/01/01 00:00:52;;;;;;;33.40;16.00;;;10.80;99.90;;;;;;5046985;28;20532;-78
2022/01/01 00:03:17;;;;;;;37.20;16.23;;;10.80;99.90;;;;;;5055585;28;20241;-77
2022/01/01 00:05:43;;;;;;;26.23;14.80;;;10.80;99.90;;;;;;5058745;28;20292;-78
2022/01/01 00:08:11;;;;;;;29.30;17.17;;;10.80;99.90;;;;;;5037789;28;20246;-77
2022/01/01 00:10:36;;;;;;;35.00;18.80;;;10.80;99.90;;;;;;5042793;28;20181;-78
2022/01/01 00:13:03;;;;;;;33.67;17.87;;;10.80;99.90;;;;;;5047324;28;20230;-78
2022/01/01 00:15:28;;;;;;;28.10;14.90;;;10.80;99.90;;;;;;5032981;28;20201;-77
2022/01/01 00:18:01;;;;;;;27.87;15.23;;;10.90;99.90;;;;;;5053889;28;20204;-79
2022/01/01 00:20:27;;;;;;;28.20;13.77;;;10.90;99.90;;;;;;5046393;28;20260;-78
2022/01/01 00:22:52;;;;;;;26.97;14.00;;;10.90;99.90;;;;;;5049816;28;20215;-77
2022/01/01 00:25:18;;;;;;;24.60;13.27;;;10.90;99.90;;;;;;5033801;28;20206;-77
2022/01/01 00:27:44;;;;;;;29.00;13.70;;;10.90;99.90;;;;;;5051806;28;20649;-77
2022/01/01 00:30:10;;;;;;;25.50;12.57;;;10.80;99.90;;;;;;5044818;28;20174;-78
2022/01/01 00:32:37;;;;;;;28.27;13.07;;;10.90;99.90;;;;;;5050152;28;20177;-77
2022/01/01 00:35:04;;;;;;;31.67;13.37;;;10.80;99.90;;;;;;5048273;28;20243;-78
2022/01/01 00:37:29;;;;;;;32.77;13.73;;;10.80;99.90;;;;;;5042254;28;20208;-78
2022/01/01 00:39:55;;;;;;;25.40;13.03;;;10.80;99.90;;;;;;5038045;28;20265;-77
2022/01/01 00:42:22;;;;;;;27.53;13.07;;;10.90;99.90;;;;;;5037121;28;20609;-78
2022/01/01 00:44:48;;;;;;;30.43;15.07;;;10.90;99.90;;;;;;5050052;28;20219;-77
2022/01/01 00:47:13;;;;;;;29.80;15.17;;;10.90;99.90;;;;;;5038469;28;20180;-77
2022/01/01 00:49:39;;;;;;;36.30;25.50;;;10.90;99.90;;;;;;5044369;28;20184;-78
2022/01/01 00:52:05;;;;;;;30.03;16.37;;;10.90;99.90;;;;;;5043811;28;20189;-78
2022/01/01 00:54:30;;;;;;;26.23;13.63;;;11.00;99.90;;;;;;5050589;28;20663;-77
2022/01/01 00:56:56;;;;;;;29.57;12.87;;;11.00;99.90;;;;;;5035955;28;20678;-78
2022/01/01 00:59:22;;;;;;;25.73;13.03;;;11.00;99.90;;;;;;5040056;28;20173;-78
2022/01/01 01:01:47;;;;;;;22.67;11.70;;;11.00;99.90;;;;;;5036682;28;20179;-78
2022/01/01 01:04:13;;;;;;;27.60;10.90;;;11.00;99.90;;;;;;5041720;28;20582;-78
2022/01/01 01:06:39;;;;;;;25.80;11.27;;;10.90;99.90;;;;;;5037226;28;20699;-78
2022/01/01 01:09:05;;;;;;;26.40;12.07;;;10.90;99.90;;;;;;5043007;28;20216;-78
2022/01/01 01:11:31;;;;;;;19.27;9.63;;;10.90;99.90;;;;;;5051923;28;20256;-77
2022/01/01 01:13:59;;;;;;;26.63;11.80;;;10.90;99.90;;;;;;5033505;28;20238;-78
2022/01/01 01:16:26;;;;;;;27.70;12.03;;;11.00;99.90;;;;;;5030757;28;20656;-79
2022/01/01 01:18:54;;;;;;;20.87;10.90;;;10.90;99.90;;;;;;5037309;28;20223;-80
2022/01/01 01:21:23;;;;;;;26.70;11.47;;;11.00;99.90;;;;;;5019244;28;20177;-78
2022/01/01 01:23:49;;;;;;;25.13;11.90;;;11.00;99.90;;;;;;5041840;28;20276;-77
2022/01/01 01:26:16;;;;;;;24.23;11.03;;;10.90;99.90;;;;;;5022073;28;20205;-78
2022/01/01 01:28:48;;;;;;;23.10;10.90;;;11.00;99.90;;;;;;5032408;28;20187;-78
2022/01/01 01:31:15;;;;;;;24.33;10.03;;;11.00;99.90;;;;;;5049139;28;20181;-80
2022/01/01 01:33:41;;;;;;;23.13;9.87;;;11.00;99.90;;;;;;5034826;28;20181;-78
2022/01/01 01:36:06;;;;;;;27.03;10.60;;;11.00;99.90;;;;;;5025155;28;20202;-78
2022/01/01 01:38:36;;;;;;;23.23;10.60;;;11.00;99.90;;;;;;5043797;28;20272;-78
2022/01/01 01:41:07;;;;;;;25.53;10.50;;;11.00;99.90;;;;;;5022077;28;20189;-78
2022/01/01 01:43:33;;;;;;;23.93;10.17;;;11.00;99.90;;;;;;5043910;28;20178;-78
2022/01/01 01:46:05;;;;;;;22.97;10.27;;;11.00;99.90;;;;;;5018483;28;20307;-78
2022/01/01 01:48:32;;;;;;;23.63;10.30;;;10.90;99.90;;;;;;5028381;28;20192;-79
2022/01/01 01:50:58;;;;;;;25.53;10.77;;;10.90;99.90;;;;;;5027547;28;20189;-79
2022/01/01 01:53:24;;;;;;;26.00;11.17;;;10.90;99.90;;;;;;5045428;28;20184;-79
2022/01/01 01:55:51;;;;;;;23.70;10.53;;;10.90;99.90;;;;;;5035370;28;20269;-79
2022/01/01 01:58:22;;;;;;;25.20;10.30;;;10.90;99.90;;;;;;5026427;28;20590;-79
2022/01/01 02:03:14;;;;;;;24.17;10.43;;;10.90;99.90;;;;;;5043497;28;20185;-78
2022/01/01 02:05:40;;;;;;;24.10;10.17;;;11.00;99.90;;;;;;5035913;28;20237;-78
2022/01/01 02:08:07;;;;;;;20.53;10.17;;;11.00;99.90;;;;;;5025242;28;20192;-78
2022/01/01 02:10:34;;;;;;;25.47;10.07;;;11.00;99.90;;;;;;5031584;28;20603;-79
2022/01/01 02:13:29;;;;;;;27.33;10.10;;;11.00;99.90;;;;;;5032267;28;20178;-79
2022/01/01 02:18:21;;;;;;;19.40;10.27;;;11.10;99.90;;;;;;5045338;28;20174;-78
2022/01/01 02:20:50;;;;;;;26.37;10.13;;;11.10;99.90;;;;;;5030514;28;20176;-79
2022/01/01 02:23:25;;;;;;;23.47;9.30;;;11.10;99.90;;;;;;5035385;28;20191;-81
2022/01/01 02:25:54;;;;;;;26.03;10.80;;;11.10;99.90;;;;;;5032947;28;20221;-79
2022/01/01 02:28:20;;;;;;;21.57;9.47;;;11.10;99.90;;;;;;5030126;28;20235;-80
2022/01/01 02:30:47;;;;;;;21.83;10.30;;;11.10;99.90;;;;;;5036037;28;20307;-80
2022/01/01 02:33:13;;;;;;;19.77;9.37;;;11.20;99.90;;;;;;5033685;28;20188;-79
2022/01/01 02:35:39;;;;;;;22.80;9.73;;;11.10;99.90;;;;;;5046956;28;20193;-79
2022/01/01 02:38:07;;;;;;;18.07;9.47;;;11.10;99.90;;;;;;5028952;28;20193;-78
2022/01/01 02:40:33;;;;;;;23.33;9.47;;;11.10;99.90;;;;;;5032175;28;20714;-79
2022/01/01 02:42:59;;;;;;;19.67;9.70;;;11.10;99.90;;;;;;5041615;28;20301;-78
2022/01/01 02:45:25;;;;;;;21.07;9.40;;;11.10;99.90;;;;;;5032307;28;20216;-78
2022/01/01 02:47:50;;;;;;;20.90;10.00;;;11.20;99.90;;;;;;5028313;28;20657;-77
2022/01/01 02:50:17;;;;;;;17.37;9.07;;;11.20;99.90;;;;;;5047967;28;20223;-78
2022/01/01 02:52:49;;;;;;;17.73;8.73;;;11.20;99.90;;;;;;5040488;28;20268;-78
2022/01/01 02:55:15;;;;;;;20.40;9.93;;;11.20;99.90;;;;;;5034458;28;20211;-80
2022/01/01 02:57:40;;;;;;;24.37;9.83;;;11.20;99.90;;;;;;5035672;28;20204;-78
2022/01/01 03:00:08;;;;;;;20.33;9.77;;;11.20;99.90;;;;;;5038565;28;20200;-78
2022/01/01 03:02:34;;;;;;;25.50;10.23;;;11.20;99.90;;;;;;5034747;28;20176;-78
2022/01/01 03:05:00;;;;;;;26.77;10.53;;;11.30;99.90;;;;;;5028426;28;20202;-79
2022/01/01 03:07:25;;;;;;;20.50;10.27;;;11.30;99.90;;;;;;5035457;28;20272;-79
2022/01/01 03:09:51;;;;;;;24.43;10.87;;;11.20;99.90;;;;;;5039506;28;20177;-80
2022/01/01 03:12:23;;;;;;;22.83;10.30;;;11.30;99.90;;;;;;5031847;28;20177;-78
2022/01/01 03:14:49;;;;;;;22.67;10.43;;;11.30;99.90;;;;;;5022175;28;20210;-78
2022/01/01 03:17:14;;;;;;;23.30;10.20;;;11.30;99.90;;;;;;5042442;28;20229;-78
2022/01/01 03:19:40;;;;;;;27.23;16.93;;;11.30;99.90;;;;;;5046563;28;20172;-78
2022/01/01 03:22:05;;;;;;;23.17;10.90;;;11.20;99.90;;;;;;5047446;28;20185;-79
2022/01/01 03:24:31;;;;;;;21.10;10.57;;;11.20;99.90;;;;;;5043007;28;20208;-78
2022/01/01 03:26:57;;;;;;;24.83;10.33;;;11.30;99.90;;;;;;5024889;28;20185;-78
2022/01/01 03:29:23;;;;;;;24.17;11.10;;;11.30;99.90;;;;;;5033703;28;20181;-78
2022/01/01 03:31:49;;;;;;;28.97;11.73;;;11.30;99.90;;;;;;5045537;28;20582;-77
2022/01/01 03:34:15;;;;;;;27.10;11.50;;;11.20;99.90;;;;;;5048280;28;20178;-79
2022/01/01 03:36:41;;;;;;;26.67;11.63;;;11.20;99.90;;;;;;5037686;28;20259;-79
2022/01/01 03:39:07;;;;;;;27.50;11.00;;;11.20;99.90;;;;;;5039713;28;20517;-79
2022/01/01 03:41:33;;;;;;;24.87;11.83;;;11.30;99.90;;;;;;5037595;28;20197;-79
2022/01/01 03:43:58;;;;;;;27.07;11.67;;;11.30;99.90;;;;;;5052676;28;20183;-77
2022/01/01 03:46:24;;;;;;;27.33;11.50;;;11.30;99.90;;;;;;5051429;28;20212;-79
2022/01/01 03:48:50;;;;;;;28.83;11.53;;;11.30;99.90;;;;;;5031548;28;20575;-79
2022/01/01 03:51:15;;;;;;;25.77;11.93;;;11.20;99.90;;;;;;5036234;28;20262;-79
2022/01/01 03:53:49;;;;;;;26.90;11.57;;;11.30;99.90;;;;;;5038171;28;20708;-81
2022/01/01 03:56:18;;;;;;;26.67;12.63;;;11.20;99.90;;;;;;5039113;28;20205;-79
2022/01/01 03:58:59;;;;;;;28.40;12.07;;;11.30;99.90;;;;;;5036424;28;20174;-78
2022/01/01 04:01:24;;;;;;;26.17;12.60;;;11.30;99.90;;;;;;5022895;28;20180;-77
2022/01/01 04:03:50;;;;;;;25.80;11.50;;;11.30;99.90;;;;;;5044776;28;20230;-77
2022/01/01 04:06:15;;;;;;;30.47;19.60;;;11.30;99.90;;;;;;5043518;28;20270;-79
2022/01/01 04:08:41;;;;;;;26.57;12.43;;;11.20;99.90;;;;;;5042325;28;20291;-79
2022/01/01 04:11:07;;;;;;;28.73;13.00;;;11.20;99.90;;;;;;5033402;28;20606;-79
2022/01/01 04:13:32;;;;;;;26.97;14.03;;;11.20;99.90;;;;;;5036976;28;20214;-78
2022/01/01 04:15:58;;;;;;;23.90;12.50;;;11.20;99.90;;;;;;5033312;28;20217;-78
2022/01/01 04:18:38;;;;;;;24.80;12.70;;;11.20;99.90;;;;;;5044797;28;20530;-78
2022/01/01 04:21:10;;;;;;;26.27;12.60;;;11.20;99.90;;;;;;5042751;28;20174;-79
2022/01/01 04:23:38;;;;;;;23.80;13.03;;;11.20;99.90;;;;;;5030306;28;20306;-78
2022/01/01 04:26:05;;;;;;;25.27;13.33;;;11.20;99.90;;;;;;5040123;28;20201;-79
2022/01/01 04:28:31;;;;;;;28.83;13.17;;;11.20;99.90;;;;;;5045953;28;20178;-78
2022/01/01 04:30:56;;;;;;;33.20;14.70;;;11.20;99.90;;;;;;5033350;28;20187;-78
2022/01/01 04:33:32;;;;;;;23.00;12.43;;;11.20;99.90;;;;;;5035650;28;20624;-80
2022/01/01 04:35:58;;;;;;;28.80;14.30;;;11.20;99.90;;;;;;5051789;28;20644;-79
2022/01/01 04:38:37;;;;;;;31.23;13.83;;;11.20;99.90;;;;;;5034072;28;20268;-80
2022/01/01 04:41:07;;;;;;;28.13;13.37;;;11.20;99.90;;;;;;5025304;28;20273;-78
2022/01/01 04:43:32;;;;;;;32.50;14.63;;;11.20;99.90;;;;;;5046747;28;20174;-80
2022/01/01 04:45:58;;;;;;;29.03;14.30;;;11.20;99.90;;;;;;5031218;28;20281;-81
2022/01/01 04:48:24;;;;;;;25.67;15.00;;;11.20;99.90;;;;;;5048946;28;20706;-79
2022/01/01 04:50:50;;;;;;;34.73;15.30;;;11.20;99.90;;;;;;5030869;28;20178;-78
2022/01/01 04:53:17;;;;;;;32.20;15.87;;;11.20;99.90;;;;;;5047885;28;20527;-78
2022/01/01 04:55:44;;;;;;;31.90;15.10;;;11.20;99.90;;;;;;5049543;28;20197;-78
2022/01/01 04:58:10;;;;;;;26.10;14.67;;;11.30;99.90;;;;;;5040807;28;20177;-78
2022/01/01 05:00:37;;;;;;;30.57;15.97;;;11.20;99.90;;;;;;5027261;28;20185;-78
2022/01/01 05:03:02;;;;;;;28.77;15.17;;;11.20;99.90;;;;;;5023349;28;20273;-80
2022/01/01 05:05:28;;;;;;;30.63;14.93;;;11.20;99.90;;;;;;5025496;28;20236;-78
2022/01/01 05:07:53;;;;;;;28.97;15.67;;;11.20;99.90;;;;;;5047915;28;20173;-78
2022/01/01 05:10:19;;;;;;;30.40;15.87;;;11.20;99.90;;;;;;5046251;28;20197;-79
2022/01/01 05:12:45;;;;;;;33.77;16.53;;;11.20;99.90;;;;;;5032947;28;20192;-79
2022/01/01 05:15:11;;;;;;;35.90;16.80;;;11.20;99.90;;;;;;5025594;28;20205;-79
2022/01/01 05:17:36;;;;;;;31.93;15.87;;;11.20;99.90;;;;;;5045209;28;20224;-78
2022/01/01 05:20:03;;;;;;;29.43;16.17;;;11.20;99.90;;;;;;5021600;28;20759;-78
2022/01/01 05:22:29;;;;;;;32.83;15.67;;;11.20;99.90;;;;;;5052497;28;20265;-78
2022/01/01 05:24:59;;;;;;;34.07;15.13;;;11.10;99.90;;;;;;5024660;28;20629;-78
2022/01/01 05:27:31;;;;;;;33.67;16.73;;;11.10;99.90;;;;;;5020959;28;20170;-78
2022/01/01 05:29:57;;;;;;;35.27;17.50;;;11.10;99.90;;;;;;5020234;28;20181;-77
2022/01/01 05:32:22;;;;;;;32.97;17.07;;;11.20;99.90;;;;;;5028866;28;20192;-80
2022/01/01 05:34:48;;;;;;;31.13;15.83;;;11.20;99.90;;;;;;5041570;28;20238;-78
2022/01/01 05:37:14;;;;;;;32.17;18.13;;;11.20;99.90;;;;;;5048649;28;20201;-78
2022/01/01 05:39:44;;;;;;;32.50;16.10;;;11.20;99.90;;;;;;5035903;28;20200;-81
2022/01/01 05:42:09;;;;;;;36.10;16.77;;;11.20;99.90;;;;;;5034495;28;20165;-79
2022/01/01 05:44:35;;;;;;;32.20;15.73;;;11.20;99.90;;;;;;5036424;28;20285;-79
2022/01/01 05:47:01;;;;;;;31.40;16.83;;;11.20;99.90;;;;;;5046379;28;20273;-79
2022/01/01 05:49:26;;;;;;;34.00;16.30;;;11.20;99.90;;;;;;5036225;28;20177;-79
2022/01/01 05:51:52;;;;;;;33.70;16.63;;;11.20;99.90;;;;;;5035367;28;20182;-80
2022/01/01 05:54:18;;;;;;;33.70;17.13;;;11.20;99.90;;;;;;5045718;28;20245;-80
2022/01/01 05:56:43;;;;;;;31.40;16.00;;;11.20;99.90;;;;;;5037080;28;20758;-80
2022/01/01 05:59:09;;;;;;;32.03;16.40;;;11.20;99.90;;;;;;5049707;28;20204;-80
2022/01/01 06:01:36;;;;;;;34.63;15.77;;;11.20;99.90;;;;;;5038272;28;20196;-79
2022/01/01 06:04:01;;;;;;;32.30;15.43;;;11.20;99.90;;;;;;5037195;28;20268;-80
2022/01/01 06:06:27;;;;;;;36.27;16.93;;;11.20;99.90;;;;;;5047416;28;20213;-80
2022/01/01 06:08:53;;;;;;;31.07;16.03;;;11.20;99.90;;;;;;5031618;28;20215;-79
2022/01/01 06:11:18;;;;;;;36.97;16.80;;;11.20;99.90;;;;;;5037661;28;20181;-80
2022/01/01 06:13:44;;;;;;;37.70;16.40;;;11.20;99.90;;;;;;5049456;28;20227;-80
2022/01/01 06:16:09;;;;;;;31.37;16.47;;;11.20;99.90;;;;;;5027895;28;20228;-80
2022/01/01 06:18:36;;;;;;;36.60;17.27;;;11.20;99.90;;;;;;5034102;28;20180;-80
2022/01/01 06:21:03;;;;;;;34.60;15.63;;;11.30;99.90;;;;;;5036552;28;20177;-82
2022/01/01 06:23:29;;;;;;;32.20;15.77;;;11.30;99.90;;;;;;5048562;28;20181;-79
2022/01/01 06:25:55;;;;;;;35.93;16.27;;;11.20;99.90;;;;;;5047324;28;20266;-80
2022/01/01 06:28:20;;;;;;;28.30;14.97;;;11.20;99.90;;;;;;5035259;28;20181;-80
2022/01/01 06:30:46;;;;;;;29.70;14.77;;;11.20;99.90;;;;;;5046485;28;20323;-81
2022/01/01 06:33:15;;;;;;;35.83;14.50;;;11.20;99.90;;;;;;5036594;28;20174;-80
2022/01/01 06:35:42;;;;;;;36.20;14.87;;;11.30;99.90;;;;;;5046654;28;20278;-79
2022/01/01 06:38:09;;;;;;;35.77;15.17;;;11.30;99.90;;;;;;5040479;28;20188;-79
2022/01/01 06:40:36;;;;;;;27.57;14.40;;;11.30;99.90;;;;;;5040279;28;20185;-79
2022/01/01 06:43:03;;;;;;;29.90;15.43;;;11.20;99.90;;;;;;5034843;28;20224;-79
2022/01/01 06:45:28;;;;;;;27.13;14.50;;;11.20;99.90;;;;;;5046545;28;20193;-79
2022/01/01 06:47:54;;;;;;;33.90;15.83;;;11.20;99.90;;;;;;5047909;28;20188;-80
2022/01/01 06:50:20;;;;;;;32.27;15.43;;;11.10;99.90;;;;;;5051286;28;20379;-80
2022/01/01 06:52:46;;;;;;;28.23;15.00;;;11.20;99.90;;;;;;5039118;28;20181;-80
2022/01/01 06:55:12;;;;;;;32.40;14.67;;;11.20;99.90;;;;;;5037627;28;20261;-79
2022/01/01 06:57:40;;;;;;;31.60;14.73;;;11.10;99.90;;;;;;5038482;28;20205;-79
2022/01/01 07:00:07;;;;;;;28.77;14.83;;;11.20;99.90;;;;;;5046557;28;20174;-79
2022/01/01 07:02:38;;;;;;;33.93;14.57;;;11.20;99.90;;;;;;5034822;28;20178;-80
2022/01/01 07:05:04;;;;;;;33.13;14.40;;;11.20;99.90;;;;;;5054497;28;20272;-80
2022/01/01 07:07:30;;;;;;;32.80;14.57;;;11.20;99.90;;;;;;5050171;28;20187;-80
2022/01/01 07:09:56;;;;;;;32.53;14.30;;;11.20;99.90;;;;;;5049649;28;20699;-81
2022/01/01 07:12:21;;;;;;;29.43;15.03;;;11.20;99.90;;;;;;5045319;28;20188;-80
2022/01/01 07:14:47;;;;;;;30.00;14.70;;;11.10;99.90;;;;;;5035789;28;20182;-81
2022/01/01 07:17:12;;;;;;;31.27;14.83;;;11.10;99.90;;;;;;5046465;28;20207;-80
2022/01/01 07:19:38;;;;;;;29.33;13.90;;;11.10;99.90;;;;;;5032595;28;20177;-80
2022/01/01 07:22:04;;;;;;;36.10;15.20;;;11.20;99.90;;;;;;5039889;28;20208;-80
2022/01/01 07:24:29;;;;;;;32.10;14.00;;;11.20;99.90;;;;;;5036251;28;20174;-80
2022/01/01 07:26:55;;;;;;;34.93;15.03;;;11.20;99.90;;;;;;5032366;28;20180;-80
2022/01/01 07:29:21;;;;;;;32.33;14.33;;;11.20;99.90;;;;;;5048055;28;20202;-81
2022/01/01 07:31:46;;;;;;;33.77;14.83;;;11.20;99.90;;;;;;5039779;28;20177;-80
2022/01/01 07:34:12;;;;;;;31.83;14.63;;;11.20;99.90;;;;;;5046666;28;20207;-80
2022/01/01 07:36:38;;;;;;;34.07;15.50;;;11.20;99.90;;;;;;5036585;28;20236;-80
2022/01/01 07:39:03;;;;;;;30.90;14.93;;;11.10;99.90;;;;;;5032038;28;20180;-80
2022/01/01 07:41:29;;;;;;;34.80;15.73;;;11.10;99.90;;;;;;5054976;28;20184;-80
2022/01/01 07:43:55;;;;;;;39.23;15.43;;;11.10;99.90;;;;;;5044733;28;20173;-80
2022/01/01 07:46:22;;;;;;;35.50;16.53;;;11.10;99.90;;;;;;5058954;28;20310;-80
2022/01/01 07:48:48;;;;;;;38.83;15.93;;;11.20;99.90;;;;;;5042149;28;20188;-80
2022/01/01 07:51:13;;;;;;;34.50;15.50;;;11.20;99.90;;;;;;5049579;28;20185;-79
2022/01/01 07:53:39;;;;;;;31.67;15.73;;;11.10;99.90;;;;;;5054690;28;20248;-79
2022/01/01 07:56:05;;;;;;;30.93;15.70;;;11.10;99.90;;;;;;5054433;28;20225;-80
2022/01/01 07:58:31;;;;;;;30.60;14.40;;;11.10;99.90;;;;;;5052995;28;20620;-79
2022/01/01 08:00:57;;;;;;;33.80;16.00;;;11.20;99.90;;;;;;5048431;28;20529;-80
2022/01/01 08:03:23;;;;;;;32.33;15.87;;;11.20;99.90;;;;;;5045266;28;20166;-79
2022/01/01 08:05:48;;;;;;;28.40;14.83;;;11.10;99.90;;;;;;5040027;28;20211;-79
2022/01/01 08:08:14;;;;;;;42.90;16.93;;;11.20;99.90;;;;;;5052500;28;20227;-79
2022/01/01 08:10:40;;;;;;;39.90;16.73;;;11.20;99.90;;;;;;5051280;28;20180;-80
2022/01/01 08:13:08;;;;;;;33.30;15.57;;;11.10;99.90;;;;;;5051991;28;20207;-79
2022/01/01 08:15:33;;;;;;;34.97;15.33;;;11.10;99.90;;;;;;5038676;28;20216;-80
2022/01/01 08:17:59;;;;;;;37.97;17.10;;;11.20;99.90;;;;;;5033192;28;20635;-79
2022/01/01 08:20:25;;;;;;;36.40;16.53;;;11.20;99.90;;;;;;5043832;28;20185;-80
2022/01/01 08:22:50;;;;;;;42.30;16.53;;;11.20;99.90;;;;;;5035680;28;20173;-79
2022/01/01 08:25:16;;;;;;;33.03;16.43;;;11.20;99.90;;;;;;5051579;28;20190;-79
2022/01/01 08:27:43;;;;;;;36.83;16.50;;;11.20;99.90;;;;;;5039296;28;20181;-79
2022/01/01 08:30:09;;;;;;;36.60;16.27;;;11.20;99.90;;;;;;5036420;28;20204;-79
2022/01/01 08:32:35;;;;;;;42.10;17.77;;;11.20;99.90;;;;;;5055920;28;20182;-79
2022/01/01 08:35:00;;;;;;;41.87;18.63;;;11.30;99.90;;;;;;5047514;28;20201;-79
2022/01/01 08:37:26;;;;;;;40.17;18.03;;;11.30;99.90;;;;;;5052674;28;20290;-80
2022/01/01 08:39:52;;;;;;;43.47;18.37;;;11.20;99.90;;;;;;5043401;28;20610;-79
2022/01/01 08:42:21;;;;;;;44.40;18.77;;;11.30;99.90;;;;;;5053736;28;20537;-79
2022/01/01 08:44:48;;;;;;;42.77;18.50;;;11.30;99.90;;;;;;5052577;28;20201;-80
2022/01/01 08:47:14;;;;;;;38.67;17.83;;;11.30;99.90;;;;;;5054965;28;20182;-80
2022/01/01 08:49:40;;;;;;;41.30;19.03;;;11.30;99.90;;;;;;5044019;28;20692;-79
2022/01/01 08:52:10;;;;;;;40.47;19.93;;;11.30;99.90;;;;;;5044540;28;20188;-79
2022/01/01 08:54:36;;;;;;;40.63;18.73;;;11.30;99.90;;;;;;5050338;28;20213;-79
2022/01/01 08:57:02;;;;;;;44.53;19.87;;;11.30;99.90;;;;;;5043888;28;20201;-79
2022/01/01 08:59:27;;;;;;;55.87;20.70;;;11.30;99.90;;;;;;5038026;28;20203;-79
2022/01/01 09:01:53;;;;;;;44.83;21.03;;;11.30;99.90;;;;;;5050576;28;20196;-79
2022/01/01 09:04:19;;;;;;;48.20;21.53;;;11.40;99.90;;;;;;5053578;28;20178;-80
2022/01/01 09:06:44;;;;;;;47.53;21.57;;;11.40;99.90;;;;;;5053131;28;20228;-79
2022/01/01 09:09:10;;;;;;;48.07;21.30;;;11.40;99.90;;;;;;5043497;28;20184;-80
2022/01/01 09:11:36;;;;;;;46.03;22.17;;;11.50;99.90;;;;;;5060988;28;20185;-80
2022/01/01 09:14:02;;;;;;;53.67;23.03;;;11.50;99.90;;;;;;5061244;28;20189;-79
2022/01/01 09:16:30;;;;;;;49.60;24.20;;;11.50;99.90;;;;;;5061462;28;20271;-79
2022/01/01 09:18:56;;;;;;;49.30;23.90;;;11.50;99.90;;;;;;5051393;28;20202;-79
2022/01/01 09:21:22;;;;;;;51.97;24.43;;;11.60;99.90;;;;;;5058558;28;20169;-80
2022/01/01 09:23:48;;;;;;;46.20;23.57;;;11.50;99.90;;;;;;5041702;28;20657;-80
2022/01/01 09:26:14;;;;;;;55.10;25.77;;;11.60;99.90;;;;;;5046254;28;20343;-79
2022/01/01 09:28:39;;;;;;;52.20;24.87;;;11.60;99.90;;;;;;5046593;28;20186;-80
2022/01/01 09:31:05;;;;;;;47.30;26.93;;;11.60;99.90;;;;;;5035931;28;20278;-80
2022/01/01 09:33:32;;;;;;;54.03;25.83;;;11.60;99.90;;;;;;5048426;28;20279;-80
2022/01/01 09:35:59;;;;;;;55.03;28.17;;;11.60;99.90;;;;;;5040627;28;20198;-80
2022/01/01 09:38:25;;;;;;;60.03;27.90;;;11.60;99.90;;;;;;5047791;28;20173;-80
2022/01/01 09:40:56;;;;;;;62.67;28.87;;;11.60;99.90;;;;;;5043107;28;20181;-80
2022/01/01 09:43:23;;;;;;;58.67;28.83;;;11.60;99.90;;;;;;5057583;28;20174;-80
2022/01/01 09:45:50;;;;;;;56.90;30.83;;;11.60;99.90;;;;;;5050444;28;20743;-80
2022/01/01 09:48:19;;;;;;;61.63;30.63;;;11.60;99.90;;;;;;5050214;28;20177;-80
2022/01/01 09:50:48;;;;;;;66.83;30.93;;;11.60;99.90;;;;;;5049339;28;20260;-80
2022/01/01 09:53:13;;;;;;;67.33;33.03;;;11.60;99.90;;;;;;5049375;28;20173;-80
2022/01/01 09:55:40;;;;;;;68.43;34.00;;;11.60;99.90;;;;;;5050491;28;20200;-80
2022/01/01 09:58:05;;;;;;;64.03;33.07;;;11.60;99.90;;;;;;5049316;28;20205;-80
2022/01/01 10:00:31;;;;;;;63.50;34.80;;;11.60;99.90;;;;;;5052142;28;20184;-80
2022/01/01 10:02:57;;;;;;;75.50;37.40;;;11.60;99.90;;;;;;5046318;28;20190;-80
2022/01/01 10:05:22;;;;;;;72.43;36.77;;;11.60;99.90;;;;;;5047798;28;20200;-80
2022/01/01 10:07:48;;;;;;;71.27;36.93;;;11.60;99.90;;;;;;5035160;28;20609;-80
2022/01/01 10:10:30;;;;;;;81.87;38.27;;;11.60;99.90;;;;;;5028432;28;20241;-80
2022/01/01 10:12:55;;;;;;;70.77;38.70;;;11.70;99.90;;;;;;5028058;28;20289;-80
2022/01/01 10:15:21;;;;;;;73.70;39.67;;;11.70;99.90;;;;;;5048599;28;20305;-79
2022/01/01 10:17:47;;;;;;;76.20;38.33;;;11.70;99.90;;;;;;5039688;28;20668;-79
2022/01/01 10:20:13;;;;;;;72.23;39.00;;;11.70;99.90;;;;;;5048565;28;20182;-79
2022/01/01 10:22:39;;;;;;;72.13;40.60;;;11.70;99.90;;;;;;5038029;28;20174;-79
2022/01/01 10:28:02;;;;;;;74.63;40.83;;;11.60;99.90;;;;;;5050582;28;20181;-79
2022/01/01 10:30:36;;;;;;;68.10;38.43;;;11.60;99.90;;;;;;5037334;28;20607;-80
2022/01/01 10:33:07;;;;;;;73.87;39.00;;;11.70;99.90;;;;;;5038952;28;20189;-79
2022/01/01 10:35:47;;;;;;;72.70;39.17;;;11.70;99.90;;;;;;5034570;28;20193;-80
2022/01/01 10:38:22;;;;;;;74.17;40.80;;;11.70;99.90;;;;;;5044407;28;20185;-80
2022/01/01 10:41:04;;;;;;;73.83;40.10;;;11.70;99.90;;;;;;5029768;28;20169;-81
2022/01/01 10:43:38;;;;;;;78.07;37.97;;;11.70;99.90;;;;;;5049810;28;20162;-80
2022/01/01 10:46:05;;;;;;;68.47;38.27;;;11.70;99.90;;;;;;5043679;28;20204;-80
2022/01/01 10:51:04;;;;;;;63.70;36.13;;;11.70;99.90;;;;;;5052259;28;20276;-80
2022/01/01 10:53:30;;;;;;;70.27;36.53;;;11.70;99.90;;;;;;5052957;28;20181;-79
2022/01/01 10:56:00;;;;;;;69.07;34.13;;;11.70;99.90;;;;;;5050715;28;20197;-80
2022/01/01 10:58:28;;;;;;;60.70;31.47;;;11.70;99.90;;;;;;5027865;28;20170;-80
2022/01/01 11:01:03;;;;;;;60.90;33.27;;;11.70;99.90;;;;;;5030901;28;20251;-80
2022/01/01 11:03:38;;;;;;;62.20;32.93;;;11.70;99.90;;;;;;5042631;28;20184;-79
2022/01/01 11:06:06;;;;;;;56.30;31.43;;;11.60;99.90;;;;;;5035089;28;20205;-80
2022/01/01 11:08:35;;;;;;;57.83;30.57;;;11.60;99.90;;;;;;5048052;28;20170;-80
2022/01/01 11:11:02;;;;;;;56.83;29.63;;;11.60;99.90;;;;;;5044183;28;20169;-80
2022/01/01 11:13:33;;;;;;;56.23;30.80;;;11.70;99.90;;;;;;5047850;28;20272;-80
2022/01/01 11:15:59;;;;;;;51.77;28.60;;;11.70;99.90;;;;;;5043451;28;20204;-80
2022/01/01 11:18:25;;;;;;;52.47;28.60;;;11.60;99.90;;;;;;5048213;28;20174;-80
2022/01/01 11:20:51;;;;;;;57.90;29.13;;;11.70;99.90;;;;;;5041554;28;20328;-80
2022/01/01 11:23:19;;;;;;;49.77;28.50;;;11.70;99.90;;;;;;5036082;28;20198;-79
2022/01/01 11:25:45;;;;;;;51.10;27.40;;;11.80;99.90;;;;;;5045961;28;20282;-80
2022/01/01 11:28:15;;;;;;;49.43;27.83;;;11.90;99.90;;;;;;5035457;28;20173;-80
2022/01/01 11:30:50;;;;;;;45.87;27.33;;;11.90;99.90;;;;;;5033512;28;20181;-80
2022/01/01 11:33:19;;;;;;;48.27;27.83;;;12.00;99.90;;;;;;5039917;28;20177;-79
2022/01/01 11:35:52;;;;;;;56.00;29.90;;;12.00;99.90;;;;;;5036829;28;20236;-80
2022/01/01 11:38:18;;;;;;;49.73;26.23;;;12.00;99.90;;;;;;5055767;28;20178;-79
2022/01/01 11:41:05;;;;;;;46.27;26.27;;;12.00;99.90;;;;;;5039551;28;20188;-81
2022/01/01 11:43:36;;;;;;;49.20;27.33;;;11.90;99.90;;;;;;5037150;28;20622;-81
2022/01/01 11:46:21;;;;;;;53.37;26.73;;;12.00;99.90;;;;;;5027877;28;20243;-79
2022/01/01 11:48:58;;;;;;;48.63;25.30;;;12.00;99.90;;;;;;5053375;28;20174;-80
2022/01/01 11:51:32;;;;;;;46.27;25.47;;;12.10;99.90;;;;;;5046084;28;20162;-79
2022/01/01 11:54:21;;;;;;;45.80;24.40;;;12.10;99.90;;;;;;5017750;28;20173;-79
2022/01/01 11:56:47;;;;;;;43.13;24.40;;;12.00;99.90;;;;;;5046368;28;21006;-79
2022/01/01 11:59:21;;;;;;;41.80;23.23;;;12.00;99.90;;;;;;5041268;28;20178;-80
2022/01/01 12:01:48;;;;;;;43.47;23.03;;;12.10;99.90;;;;;;5041955;28;20257;-79
2022/01/01 12:04:32;;;;;;;39.67;21.97;;;12.10;99.90;;;;;;5022499;28;20542;-79
2022/01/01 12:07:27;;;;;;;38.77;21.30;;;12.10;99.90;;;;;;5046219;28;20263;-79
2022/01/01 12:10:05;;;;;;;38.43;21.50;;;12.10;99.90;;;;;;5022558;28;20243;-79
2022/01/01 12:12:48;;;;;;;41.77;22.33;;;12.10;99.90;;;;;;5044698;28;20215;-81
2022/01/01 12:15:37;;;;;;;39.40;20.83;;;12.20;99.90;;;;;;5024398;28;20209;-79
2022/01/01 12:18:17;;;;;;;37.73;20.63;;;12.20;99.90;;;;;;5015137;28;20349;-79
2022/01/01 12:20:52;;;;;;;42.37;22.03;;;12.20;99.90;;;;;;5027075;28;20259;-79
2022/01/01 12:23:26;;;;;;;37.77;21.70;;;12.20;99.90;;;;;;5037449;28;20192;-79
2022/01/01 12:25:54;;;;;;;44.43;21.93;;;12.20;99.90;;;;;;5023634;28;20200;-80
2022/01/01 12:28:31;;;;;;;43.17;23.37;;;12.20;99.90;;;;;;5019266;28;20255;-78
2022/01/01 12:31:10;;;;;;;38.53;22.37;;;12.30;99.90;;;;;;5025090;28;20196;-79
2022/01/01 12:33:39;;;;;;;39.97;22.53;;;12.30;99.90;;;;;;5023191;28;20169;-79
2022/01/01 12:36:07;;;;;;;39.50;22.30;;;12.20;99.90;;;;;;5026821;28;20196;-78
2022/01/01 12:38:34;;;;;;;43.33;23.53;;;12.20;99.90;;;;;;5032893;28;20170;-78
2022/01/01 12:41:07;;;;;;;36.67;22.83;;;12.20;99.90;;;;;;5032437;28;20190;-79